sensor_id;sensor_type;location;lat;lon;timestamp;pressure;altitude;pressure_sealevel;temperature
22286;BMP180;11311;52.192;20.900;2023-07-13T00:02:01;99834.31;;;18.48
22286;BMP180;11311;52.192;20.900;2023-07-13T00:04:29;99817.72;;;18.46
22286;BMP180;11311;52.192;20.900;2023-07-13T00:07:00;99816.66;;;18.47
22286;BMP180;11311;52.192;20.900;2023-07-13T00:09:30;99818.84;;;18.45
22286;BMP180;11311;52.192;20.900;2023-07-13T00:11:58;99819.13;;;18.44
22286;BMP180;11311;52.192;20.900;2023-07-13T00:14:29;99815.66;;;18.43
22286;BMP180;11311;52.192;20.900;2023-07-13T00:16:57;99816.47;;;18.44
22286;BMP180;11311;52.192;20.900;2023-07-13T00:19:27;99814.56;;;18.44
22286;BMP180;11311;52.192;20.900;2023-07-13T00:21:56;99813.50;;;18.45
22286;BMP180;11311;52.192;20.900;2023-07-13T00:24:25;99818.28;;;18.48
22286;BMP180;11311;52.192;20.900;2023-07-13T00:26:55;99823.63;;;18.48
22286;BMP180;11311;52.192;20.900;2023-07-13T00:29:26;99825.75;;;18.46
22286;BMP180;11311;52.192;20.900;2023-07-13T00:31:55;99818.03;;;18.45
22286;BMP180;11311;52.192;20.900;2023-07-13T00:34:25;99819.38;;;18.42
22286;BMP180;11311;52.192;20.900;2023-07-13T00:36:54;99812.47;;;18.41
22286;BMP180;11311;52.192;20.900;2023-07-13T00:39:23;99812.47;;;18.41
22286;BMP180;11311;52.192;20.900;2023-07-13T00:41:52;99812.47;;;18.41
22286;BMP180;11311;52.192;20.900;2023-07-13T00:44:20;99811.88;;;18.44
22286;BMP180;11311;52.192;20.900;2023-07-13T00:46:50;99808.16;;;18.45
22286;BMP180;11311;52.192;20.900;2023-07-13T00:49:22;99809.72;;;18.46
22286;BMP180;11311;52.192;20.900;2023-07-13T00:51:55;99803.03;;;18.49
22286;BMP180;11311;52.192;20.900;2023-07-13T00:54:28;99800.63;;;18.47
22286;BMP180;11311;52.192;20.900;2023-07-13T00:57:01;99802.25;;;18.48
22286;BMP180;11311;52.192;20.900;2023-07-13T00:59:31;99802.25;;;18.48
22286;BMP180;11311;52.192;20.900;2023-07-13T01:02:02;99808.44;;;18.44
22286;BMP180;11311;52.192;20.900;2023-07-13T01:04:33;99807.91;;;18.42
22286;BMP180;11311;52.192;20.900;2023-07-13T01:07:02;99807.91;;;18.42
22286;BMP180;11311;52.192;20.900;2023-07-13T01:09:30;99817.28;;;18.39
22286;BMP180;11311;52.192;20.900;2023-07-13T01:12:00;99812.22;;;18.38
22286;BMP180;11311;52.192;20.900;2023-07-13T01:14:30;99824.28;;;18.35
22286;BMP180;11311;52.192;20.900;2023-07-13T01:16:59;99821.06;;;18.33
22286;BMP180;11311;52.192;20.900;2023-07-13T01:19:35;99821.59;;;18.35
22286;BMP180;11311;52.192;20.900;2023-07-13T01:22:07;99818.91;;;18.35
22286;BMP180;11311;52.192;20.900;2023-07-13T01:24:41;99811.41;;;18.37
22286;BMP180;11311;52.192;20.900;2023-07-13T01:27:13;99827.44;;;18.37
22286;BMP180;11311;52.192;20.900;2023-07-13T01:29:44;99829.03;;;18.38
22286;BMP180;11311;52.192;20.900;2023-07-13T01:32:17;99833.03;;;18.41
22286;BMP180;11311;52.192;20.900;2023-07-13T01:34:50;99833.84;;;18.41
22286;BMP180;11311;52.192;20.900;2023-07-13T01:37:24;99832.25;;;18.40
22286;BMP180;11311;52.192;20.900;2023-07-13T01:39:53;99839.69;;;18.43
22286;BMP180;11311;52.192;20.900;2023-07-13T01:42:22;99847.13;;;18.46
22286;BMP180;11311;52.192;20.900;2023-07-13T01:44:51;99837.03;;;18.43
22286;BMP180;11311;52.192;20.900;2023-07-13T01:47:20;99842.38;;;18.43
22286;BMP180;11311;52.192;20.900;2023-07-13T01:49:48;99840.78;;;18.42
22286;BMP180;11311;52.192;20.900;2023-07-13T01:52:19;99841.56;;;18.43
22286;BMP180;11311;52.192;20.900;2023-07-13T01:54:49;99835.41;;;18.42
22286;BMP180;11311;52.192;20.900;2023-07-13T01:57:18;99844.53;;;18.41
22286;BMP180;11311;52.192;20.900;2023-07-13T01:59:47;99839.97;;;18.42
22286;BMP180;11311;52.192;20.900;2023-07-13T02:02:16;99841.56;;;18.43
22286;BMP180;11311;52.192;20.900;2023-07-13T02:04:45;99841.56;;;18.43
22286;BMP180;11311;52.192;20.900;2023-07-13T02:07:13;99840.78;;;18.42
22286;BMP180;11311;52.192;20.900;2023-07-13T02:09:44;99846.13;;;18.42
22286;BMP180;11311;52.192;20.900;2023-07-13T02:12:14;99849.88;;;18.41
22286;BMP180;11311;52.192;20.900;2023-07-13T02:14:42;99860.56;;;18.41
22286;BMP180;11311;52.192;20.900;2023-07-13T02:17:11;99846.13;;;18.42
22286;BMP180;11311;52.192;20.900;2023-07-13T02:19:40;99850.94;;;18.40
22286;BMP180;11311;52.192;20.900;2023-07-13T02:22:09;99846.13;;;18.42
22286;BMP180;11311;52.192;20.900;2023-07-13T02:24:38;99852.00;;;18.39
22286;BMP180;11311;52.192;20.900;2023-07-13T02:27:07;99855.22;;;18.41
22286;BMP180;11311;52.192;20.900;2023-07-13T02:29:37;99860.56;;;18.41
22286;BMP180;11311;52.192;20.900;2023-07-13T02:32:07;99862.16;;;18.42
22286;BMP180;11311;52.192;20.900;2023-07-13T02:34:35;99854.63;;;18.44
22286;BMP180;11311;52.192;20.900;2023-07-13T02:37:04;99847.13;;;18.46
22286;BMP180;11311;52.192;20.900;2023-07-13T02:39:34;99851.16;;;18.49
22286;BMP180;11311;52.192;20.900;2023-07-13T02:42:04;99851.97;;;18.49
22286;BMP180;11311;52.192;20.900;2023-07-13T02:44:33;99851.38;;;18.52
22286;BMP180;11311;52.192;20.900;2023-07-13T02:47:03;99858.09;;;18.50
22286;BMP180;11311;52.192;20.900;2023-07-13T02:49:32;99847.13;;;18.46
22286;BMP180;11311;52.192;20.900;2023-07-13T02:52:01;99851.97;;;18.44
22286;BMP180;11311;52.192;20.900;2023-07-13T02:54:29;99841.78;;;18.46
22286;BMP180;11311;52.192;20.900;2023-07-13T02:56:59;99847.09;;;18.51
22286;BMP180;11311;52.192;20.900;2023-07-13T02:59:28;99848.97;;;18.51
22286;BMP180;11311;52.192;20.900;2023-07-13T03:01:57;99843.34;;;18.52
22286;BMP180;11311;52.192;20.900;2023-07-13T03:04:27;99847.88;;;18.52
22286;BMP180;11311;52.192;20.900;2023-07-13T03:06:56;99843.41;;;18.47
22286;BMP180;11311;52.192;20.900;2023-07-13T03:09:33;99849.28;;;18.44
22286;BMP180;11311;52.192;20.900;2023-07-13T03:12:05;99853.88;;;18.44
22286;BMP180;11311;52.192;20.900;2023-07-13T03:14:34;99848.28;;;18.40
22286;BMP180;11311;52.192;20.900;2023-07-13T03:17:05;99848.06;;;18.37
22286;BMP180;11311;52.192;20.900;2023-07-13T03:19:39;99848.09;;;18.32
22286;BMP180;11311;52.192;20.900;2023-07-13T03:22:08;99856.88;;;18.32
22286;BMP180;11311;52.192;20.900;2023-07-13T03:24:39;99840.09;;;18.32
22286;BMP180;11311;52.192;20.900;2023-07-13T03:27:08;99839.28;;;18.31
22286;BMP180;11311;52.192;20.900;2023-07-13T03:29:40;99830.16;;;18.32
22286;BMP180;11311;52.192;20.900;2023-07-13T03:32:09;99837.63;;;18.35
22286;BMP180;11311;52.192;20.900;2023-07-13T03:34:39;99827.97;;;18.39
22286;BMP180;11311;52.192;20.900;2023-07-13T03:37:08;99831.19;;;18.41
22286;BMP180;11311;52.192;20.900;2023-07-13T03:39:37;99828.44;;;18.46
22286;BMP180;11311;52.192;20.900;2023-07-13T03:42:06;99828.38;;;18.51
22286;BMP180;11311;52.192;20.900;2023-07-13T03:44:35;99827.50;;;18.61
22286;BMP180;11311;52.192;20.900;2023-07-13T03:47:05;99828.78;;;18.68
22286;BMP180;11311;52.192;20.900;2023-07-13T03:49:36;99834.56;;;18.75
22286;BMP180;11311;52.192;20.900;2023-07-13T03:52:07;99823.81;;;18.86
22286;BMP180;11311;52.192;20.900;2023-07-13T03:54:36;99827.16;;;18.96
22286;BMP180;11311;52.192;20.900;2023-07-13T03:57:06;99834.78;;;19.08
22286;BMP180;11311;52.192;20.900;2023-07-13T03:59:36;99827.13;;;19.20
22286;BMP180;11311;52.192;20.900;2023-07-13T04:02:05;99826.94;;;19.35
22286;BMP180;11311;52.192;20.900;2023-07-13T04:04:34;99824.88;;;19.51
22286;BMP180;11311;52.192;20.900;2023-07-13T04:07:03;99830.78;;;19.71
22286;BMP180;11311;52.192;20.900;2023-07-13T04:09:34;99833.41;;;19.90
22286;BMP180;11311;52.192;20.900;2023-07-13T04:12:03;99835.69;;;20.15
22286;BMP180;11311;52.192;20.900;2023-07-13T04:14:32;99842.50;;;20.40
22286;BMP180;11311;52.192;20.900;2023-07-13T04:17:01;99848.94;;;20.71
22286;BMP180;11311;52.192;20.900;2023-07-13T04:19:30;99852.13;;;21.00
22286;BMP180;11311;52.192;20.900;2023-07-13T04:21:58;99858.09;;;21.24
22286;BMP180;11311;52.192;20.900;2023-07-13T04:24:27;99861.25;;;21.40
22286;BMP180;11311;52.192;20.900;2023-07-13T04:26:57;99859.44;;;21.35
22286;BMP180;11311;52.192;20.900;2023-07-13T04:29:27;99879.16;;;21.45
22286;BMP180;11311;52.192;20.900;2023-07-13T04:31:56;99873.53;;;21.55
22286;BMP180;11311;52.192;20.900;2023-07-13T04:34:24;99868.53;;;21.62
22286;BMP180;11311;52.192;20.900;2023-07-13T04:36:53;99866.56;;;21.67
22286;BMP180;11311;52.192;20.900;2023-07-13T04:39:22;99873.38;;;21.73
22286;BMP180;11311;52.192;20.900;2023-07-13T04:41:51;99873.09;;;21.75
22286;BMP180;11311;52.192;20.900;2023-07-13T04:44:21;99877.06;;;21.77
22286;BMP180;11311;52.192;20.900;2023-07-13T04:46:50;99878.06;;;21.81
22286;BMP180;11311;52.192;20.900;2023-07-13T04:49:19;99884.22;;;21.82
22286;BMP180;11311;52.192;20.900;2023-07-13T04:51:48;99878.84;;;21.82
22286;BMP180;11311;52.192;20.900;2023-07-13T04:54:16;99878.63;;;21.92
22286;BMP180;11311;52.192;20.900;2023-07-13T04:56:45;99879.00;;;21.99
22286;BMP180;11311;52.192;20.900;2023-07-13T04:59:14;99876.69;;;22.06
22286;BMP180;11311;52.192;20.900;2023-07-13T05:01:44;99885.91;;;22.14
22286;BMP180;11311;52.192;20.900;2023-07-13T05:04:13;99893.53;;;22.20
22286;BMP180;11311;52.192;20.900;2023-07-13T05:06:42;99888.22;;;22.29
22286;BMP180;11311;52.192;20.900;2023-07-13T05:09:11;99893.94;;;22.36
22286;BMP180;11311;52.192;20.900;2023-07-13T05:11:40;99897.31;;;22.41
22286;BMP180;11311;52.192;20.900;2023-07-13T05:14:09;99900.63;;;22.38
22286;BMP180;11311;52.192;20.900;2023-07-13T05:16:38;99906.91;;;22.34
22286;BMP180;11311;52.192;20.900;2023-07-13T05:19:08;99913.09;;;22.34
22286;BMP180;11311;52.192;20.900;2023-07-13T05:21:37;99909.19;;;22.18
22286;BMP180;11311;52.192;20.900;2023-07-13T05:24:06;99914.44;;;22.01
22286;BMP180;11311;52.192;20.900;2023-07-13T05:26:50;99928.56;;;21.93
22286;BMP180;11311;52.192;20.900;2023-07-13T05:29:18;99928.50;;;21.84
22286;BMP180;11311;52.192;20.900;2023-07-13T05:31:47;99937.69;;;22.05
22286;BMP180;11311;52.192;20.900;2023-07-13T05:34:19;99931.22;;;22.29
22286;BMP180;11311;52.192;20.900;2023-07-13T05:36:48;99934.09;;;22.54
22286;BMP180;11311;52.192;20.900;2023-07-13T05:39:18;99928.19;;;22.74
22286;BMP180;11311;52.192;20.900;2023-07-13T05:41:47;99929.94;;;23.10
22286;BMP180;11311;52.192;20.900;2023-07-13T05:44:16;99935.22;;;23.32
22286;BMP180;11311;52.192;20.900;2023-07-13T05:46:45;99939.53;;;23.50
22286;BMP180;11311;52.192;20.900;2023-07-13T05:49:14;99935.75;;;23.68
22286;BMP180;11311;52.192;20.900;2023-07-13T05:51:45;99941.97;;;23.86
22286;BMP180;11311;52.192;20.900;2023-07-13T05:54:13;99934.19;;;23.93
22286;BMP180;11311;52.192;20.900;2023-07-13T05:56:42;99934.97;;;24.10
22286;BMP180;11311;52.192;20.900;2023-07-13T05:59:12;99924.97;;;24.19
22286;BMP180;11311;52.192;20.900;2023-07-13T06:01:41;99918.25;;;24.34
22286;BMP180;11311;52.192;20.900;2023-07-13T06:04:10;99912.81;;;24.51
22286;BMP180;11311;52.192;20.900;2023-07-13T06:06:39;99918.91;;;24.31
22286;BMP180;11311;52.192;20.900;2023-07-13T06:09:09;99911.16;;;24.21
22286;BMP180;11311;52.192;20.900;2023-07-13T06:11:38;99911.66;;;23.80
22286;BMP180;11311;52.192;20.900;2023-07-13T06:14:07;99910.25;;;23.74
22286;BMP180;11311;52.192;20.900;2023-07-13T06:16:35;99915.94;;;23.64
22286;BMP180;11311;52.192;20.900;2023-07-13T06:19:04;99918.91;;;23.37
22286;BMP180;11311;52.192;20.900;2023-07-13T06:21:33;99915.44;;;23.45
22286;BMP180;11311;52.192;20.900;2023-07-13T06:24:02;99913.88;;;23.35
22286;BMP180;11311;52.192;20.900;2023-07-13T06:26:33;99912.72;;;23.36
22286;BMP180;11311;52.192;20.900;2023-07-13T06:29:02;99914.34;;;23.63
22286;BMP180;11311;52.192;20.900;2023-07-13T06:31:31;99911.19;;;23.61
22286;BMP180;11311;52.192;20.900;2023-07-13T06:33:59;99906.28;;;23.63
22286;BMP180;11311;52.192;20.900;2023-07-13T06:36:28;99918.66;;;23.64
22286;BMP180;11311;52.192;20.900;2023-07-13T06:38:57;99917.53;;;23.65
22286;BMP180;11311;52.192;20.900;2023-07-13T06:41:26;99913.59;;;23.71
22286;BMP180;11311;52.192;20.900;2023-07-13T06:43:56;99911.03;;;24.00
22286;BMP180;11311;52.192;20.900;2023-07-13T06:46:25;99904.66;;;24.13
22286;BMP180;11311;52.192;20.900;2023-07-13T06:48:54;99903.91;;;24.51
22286;BMP180;11311;52.192;20.900;2023-07-13T06:51:22;99900.94;;;24.81
22286;BMP180;11311;52.192;20.900;2023-07-13T06:53:53;99902.78;;;24.98
22286;BMP180;11311;52.192;20.900;2023-07-13T06:56:23;99902.94;;;25.02
22286;BMP180;11311;52.192;20.900;2023-07-13T06:58:51;99905.31;;;25.24
22286;BMP180;11311;52.192;20.900;2023-07-13T07:01:22;99902.88;;;25.31
22286;BMP180;11311;52.192;20.900;2023-07-13T07:03:51;99890.50;;;24.80
22286;BMP180;11311;52.192;20.900;2023-07-13T07:06:21;99888.22;;;24.53
22286;BMP180;11311;52.192;20.900;2023-07-13T07:08:51;99893.66;;;24.44
22286;BMP180;11311;52.192;20.900;2023-07-13T07:11:22;99903.56;;;24.61
22286;BMP180;11311;52.192;20.900;2023-07-13T07:13:52;99894.81;;;24.72
22286;BMP180;11311;52.192;20.900;2023-07-13T07:16:25;99893.81;;;25.06
22286;BMP180;11311;52.192;20.900;2023-07-13T07:18:54;99896.31;;;25.40
22286;BMP180;11311;52.192;20.900;2023-07-13T07:21:22;99906.06;;;24.74
22286;BMP180;11311;52.192;20.900;2023-07-13T07:23:52;99901.78;;;24.73
22286;BMP180;11311;52.192;20.900;2023-07-13T07:26:20;99901.03;;;24.93
22286;BMP180;11311;52.192;20.900;2023-07-13T07:28:53;99915.59;;;24.72
22286;BMP180;11311;52.192;20.900;2023-07-13T07:31:27;99907.81;;;25.08
22286;BMP180;11311;52.192;20.900;2023-07-13T07:33:59;99908.69;;;25.12
22286;BMP180;11311;52.192;20.900;2023-07-13T07:36:28;99901.19;;;25.47
22286;BMP180;11311;52.192;20.900;2023-07-13T07:38:59;99906.84;;;25.74
22286;BMP180;11311;52.192;20.900;2023-07-13T07:41:28;99910.09;;;25.47
22286;BMP180;11311;52.192;20.900;2023-07-13T07:44:00;99898.19;;;25.60
22286;BMP180;11311;52.192;20.900;2023-07-13T07:46:31;99904.69;;;25.47
22286;BMP180;11311;52.192;20.900;2023-07-13T07:48:59;99902.81;;;25.39
22286;BMP180;11311;52.192;20.900;2023-07-13T07:51:28;99904.13;;;25.54
22286;BMP180;11311;52.192;20.900;2023-07-13T07:53:57;99905.47;;;25.27
22286;BMP180;11311;52.192;20.900;2023-07-13T07:56:27;99909.16;;;25.43
22286;BMP180;11311;52.192;20.900;2023-07-13T07:58:58;99911.75;;;25.72
22286;BMP180;11311;52.192;20.900;2023-07-13T08:01:31;99915.78;;;26.20
22286;BMP180;11311;52.192;20.900;2023-07-13T08:04:03;99924.34;;;26.22
22286;BMP180;11311;52.192;20.900;2023-07-13T08:06:52;99918.69;;;26.15
22286;BMP180;11311;52.192;20.900;2023-07-13T08:09:23;99914.97;;;26.07
22286;BMP180;11311;52.192;20.900;2023-07-13T08:11:52;99911.56;;;25.98
22286;BMP180;11311;52.192;20.900;2023-07-13T08:14:24;99914.03;;;25.70
22286;BMP180;11311;52.192;20.900;2023-07-13T08:17:10;99919.19;;;25.63
22286;BMP180;11311;52.192;20.900;2023-07-13T08:19:38;99902.69;;;25.56
22286;BMP180;11311;52.192;20.900;2023-07-13T08:22:07;99907.56;;;25.84
22286;BMP180;11311;52.192;20.900;2023-07-13T08:24:36;99911.19;;;26.20
22286;BMP180;11311;52.192;20.900;2023-07-13T08:27:05;99909.69;;;26.35
22286;BMP180;11311;52.192;20.900;2023-07-13T08:29:34;99909.09;;;26.50
22286;BMP180;11311;52.192;20.900;2023-07-13T08:32:05;99914.25;;;26.43
22286;BMP180;11311;52.192;20.900;2023-07-13T08:34:38;99911.31;;;26.60
22286;BMP180;11311;52.192;20.900;2023-07-13T08:37:09;99909.25;;;26.57
22286;BMP180;11311;52.192;20.900;2023-07-13T08:39:38;99916.94;;;26.31
22286;BMP180;11311;52.192;20.900;2023-07-13T08:42:12;99909.00;;;27.34
22286;BMP180;11311;52.192;20.900;2023-07-13T08:44:49;99917.34;;;27.42
22286;BMP180;11311;52.192;20.900;2023-07-13T08:47:23;99918.00;;;27.94
22286;BMP180;11311;52.192;20.900;2023-07-13T08:49:54;99920.16;;;27.33
22286;BMP180;11311;52.192;20.900;2023-07-13T08:52:30;99931.06;;;27.09
22286;BMP180;11311;52.192;20.900;2023-07-13T08:55:05;99925.88;;;27.99
22286;BMP180;11311;52.192;20.900;2023-07-13T08:57:41;99927.31;;;29.25
22286;BMP180;11311;52.192;20.900;2023-07-13T09:00:13;99931.47;;;29.76
22286;BMP180;11311;52.192;20.900;2023-07-13T09:02:46;99931.72;;;30.35
22286;BMP180;11311;52.192;20.900;2023-07-13T09:05:24;99925.72;;;31.05
22286;BMP180;11311;52.192;20.900;2023-07-13T09:08:04;99922.38;;;31.55
22286;BMP180;11311;52.192;20.900;2023-07-13T09:10:43;99924.72;;;31.53
22286;BMP180;11311;52.192;20.900;2023-07-13T09:13:22;99923.66;;;30.42
22286;BMP180;11311;52.192;20.900;2023-07-13T09:15:52;99923.63;;;30.16
22286;BMP180;11311;52.192;20.900;2023-07-13T09:18:23;99920.25;;;29.58
22286;BMP180;11311;52.192;20.900;2023-07-13T09:21:02;99915.44;;;29.14
22286;BMP180;11311;52.192;20.900;2023-07-13T09:23:31;99907.69;;;27.99
22286;BMP180;11311;52.192;20.900;2023-07-13T09:26:04;99903.06;;;28.00
22286;BMP180;11311;52.192;20.900;2023-07-13T09:28:37;99911.19;;;28.00
22286;BMP180;11311;52.192;20.900;2023-07-13T09:31:11;99908.56;;;28.19
22286;BMP180;11311;52.192;20.900;2023-07-13T09:33:42;99910.31;;;27.96
22286;BMP180;11311;52.192;20.900;2023-07-13T09:36:19;99902.97;;;28.12
22286;BMP180;11311;52.192;20.900;2023-07-13T09:38:59;99898.84;;;28.34
22286;BMP180;11311;52.192;20.900;2023-07-13T09:41:38;99890.47;;;28.73
22286;BMP180;11311;52.192;20.900;2023-07-13T09:44:10;99875.00;;;29.12
22286;BMP180;11311;52.192;20.900;2023-07-13T09:46:46;99877.00;;;29.34
22286;BMP180;11311;52.192;20.900;2023-07-13T09:49:23;99875.34;;;29.49
22286;BMP180;11311;52.192;20.900;2023-07-13T09:51:59;99872.16;;;29.66
22286;BMP180;11311;52.192;20.900;2023-07-13T09:54:32;99867.78;;;29.39
22286;BMP180;11311;52.192;20.900;2023-07-13T09:57:02;99866.53;;;28.79
22286;BMP180;11311;52.192;20.900;2023-07-13T09:59:33;99862.69;;;28.14
22286;BMP180;11311;52.192;20.900;2023-07-13T10:02:23;99857.63;;;27.54
22286;BMP180;11311;52.192;20.900;2023-07-13T10:04:56;99856.00;;;26.97
22286;BMP180;11311;52.192;20.900;2023-07-13T10:07:27;99856.94;;;26.65
22286;BMP180;11311;52.192;20.900;2023-07-13T10:09:58;99856.94;;;26.41
22286;BMP180;11311;52.192;20.900;2023-07-13T10:12:29;99854.63;;;25.95
22286;BMP180;11311;52.192;20.900;2023-07-13T10:15:00;99851.28;;;25.65
22286;BMP180;11311;52.192;20.900;2023-07-13T10:17:49;99858.69;;;25.35
22286;BMP180;11311;52.192;20.900;2023-07-13T10:20:20;99862.88;;;25.24
22286;BMP180;11311;52.192;20.900;2023-07-13T10:22:53;99861.16;;;24.99
22286;BMP180;11311;52.192;20.900;2023-07-13T10:25:26;99855.91;;;24.65
22286;BMP180;11311;52.192;20.900;2023-07-13T10:28:05;99854.78;;;24.37
22286;BMP180;11311;52.192;20.900;2023-07-13T10:30:42;99853.56;;;24.08
22286;BMP180;11311;52.192;20.900;2023-07-13T10:33:13;99854.88;;;23.85
22286;BMP180;11311;52.192;20.900;2023-07-13T10:35:43;99874.41;;;23.65
22286;BMP180;11311;52.192;20.900;2023-07-13T10:38:19;99887.03;;;23.30
22286;BMP180;11311;52.192;20.900;2023-07-13T10:40:55;99901.56;;;23.04
22286;BMP180;11311;52.192;20.900;2023-07-13T10:43:28;99932.69;;;22.57
22286;BMP180;11311;52.192;20.900;2023-07-13T10:46:00;99940.53;;;21.87
22286;BMP180;11311;52.192;20.900;2023-07-13T10:48:30;99940.75;;;20.82
22286;BMP180;11311;52.192;20.900;2023-07-13T10:51:04;99949.81;;;19.97
22286;BMP180;11311;52.192;20.900;2023-07-13T10:53:38;99950.66;;;19.32
22286;BMP180;11311;52.192;20.900;2023-07-13T10:56:21;99964.91;;;18.94
22286;BMP180;11311;52.192;20.900;2023-07-13T10:59:04;99966.13;;;18.77
22286;BMP180;11311;52.192;20.900;2023-07-13T11:01:40;99984.09;;;18.72
22286;BMP180;11311;52.192;20.900;2023-07-13T11:04:12;99991.84;;;18.73
22286;BMP180;11311;52.192;20.900;2023-07-13T11:06:43;99988.06;;;18.74
22286;BMP180;11311;52.192;20.900;2023-07-13T11:09:32;99977.34;;;18.79
22286;BMP180;11311;52.192;20.900;2023-07-13T11:12:06;99986.13;;;18.85
22286;BMP180;11311;52.192;20.900;2023-07-13T11:14:39;99982.19;;;18.77
22286;BMP180;11311;52.192;20.900;2023-07-13T11:17:37;99979.47;;;18.83
22286;BMP180;11311;52.192;20.900;2023-07-13T11:20:20;99978.31;;;18.89
22286;BMP180;11311;52.192;20.900;2023-07-13T11:22:53;99975.38;;;18.90
22286;BMP180;11311;52.192;20.900;2023-07-13T11:25:37;99984.41;;;18.99
22286;BMP180;11311;52.192;20.900;2023-07-13T11:28:16;99980.91;;;19.04
22286;BMP180;11311;52.192;20.900;2023-07-13T11:30:47;99983.59;;;18.99
22286;BMP180;11311;52.192;20.900;2023-07-13T11:33:19;99998.00;;;19.03
22286;BMP180;11311;52.192;20.900;2023-07-13T11:35:57;100001.25;;;19.00
22286;BMP180;11311;52.192;20.900;2023-07-13T11:38:33;100033.34;;;19.00
22286;BMP180;11311;52.192;20.900;2023-07-13T11:41:06;100033.06;;;19.01
22286;BMP180;11311;52.192;20.900;2023-07-13T11:43:35;100036.66;;;18.92
22286;BMP180;11311;52.192;20.900;2023-07-13T11:46:15;100034.63;;;18.73
22286;BMP180;11311;52.192;20.900;2023-07-13T11:48:48;100043.72;;;18.72
22286;BMP180;11311;52.192;20.900;2023-07-13T11:51:21;100047.72;;;18.70
22286;BMP180;11311;52.192;20.900;2023-07-13T11:53:55;100059.19;;;18.75
22286;BMP180;11311;52.192;20.900;2023-07-13T11:56:26;100053.84;;;18.75
22286;BMP180;11311;52.192;20.900;2023-07-13T11:58:56;100051.84;;;18.52
22286;BMP180;11311;52.192;20.900;2023-07-13T12:01:28;100047.06;;;18.44
22286;BMP180;11311;52.192;20.900;2023-07-13T12:04:02;100044.00;;;18.66
22286;BMP180;11311;52.192;20.900;2023-07-13T12:06:33;100032.84;;;18.93
22286;BMP180;11311;52.192;20.900;2023-07-13T12:09:11;100027.91;;;19.10
22286;BMP180;11311;52.192;20.900;2023-07-13T12:11:43;100028.88;;;19.19
22286;BMP180;11311;52.192;20.900;2023-07-13T12:14:14;100032.53;;;19.33
22286;BMP180;11311;52.192;20.900;2023-07-13T12:16:44;100024.97;;;19.40
22286;BMP180;11311;52.192;20.900;2023-07-13T12:19:18;100012.06;;;19.47
22286;BMP180;11311;52.192;20.900;2023-07-13T12:21:50;100015.69;;;19.56
22286;BMP180;11311;52.192;20.900;2023-07-13T12:24:22;100012.47;;;19.54
22286;BMP180;11311;52.192;20.900;2023-07-13T12:26:54;100017.97;;;19.44
22286;BMP180;11311;52.192;20.900;2023-07-13T12:29:23;100020.69;;;19.10
22286;BMP180;11311;52.192;20.900;2023-07-13T12:31:52;100014.97;;;18.88
22286;BMP180;11311;52.192;20.900;2023-07-13T12:34:22;100009.28;;;19.00
22286;BMP180;11311;52.192;20.900;2023-07-13T12:36:53;100004.94;;;19.09
22286;BMP180;11311;52.192;20.900;2023-07-13T12:39:24;99998.44;;;19.15
22286;BMP180;11311;52.192;20.900;2023-07-13T12:42:14;99998.94;;;19.22
22286;BMP180;11311;52.192;20.900;2023-07-13T12:44:46;99991.91;;;19.26
22286;BMP180;11311;52.192;20.900;2023-07-13T12:47:16;99987.28;;;19.08
22286;BMP180;11311;52.192;20.900;2023-07-13T12:49:49;100001.25;;;19.00
22286;BMP180;11311;52.192;20.900;2023-07-13T12:52:23;99995.84;;;19.05
22286;BMP180;11311;52.192;20.900;2023-07-13T12:54:54;99993.56;;;19.22
22286;BMP180;11311;52.192;20.900;2023-07-13T12:57:40;99982.63;;;19.42
22286;BMP180;11311;52.192;20.900;2023-07-13T13:00:23;99980.03;;;19.61
22286;BMP180;11311;52.192;20.900;2023-07-13T13:02:54;99977.41;;;19.79
22286;BMP180;11311;52.192;20.900;2023-07-13T13:05:42;99993.44;;;20.03
22286;BMP180;11311;52.192;20.900;2023-07-13T13:08:13;100000.50;;;20.18
22286;BMP180;11311;52.192;20.900;2023-07-13T13:10:41;99993.38;;;20.27
22286;BMP180;11311;52.192;20.900;2023-07-13T13:13:12;100000.69;;;20.21
22286;BMP180;11311;52.192;20.900;2023-07-13T13:15:41;100000.00;;;20.34
22286;BMP180;11311;52.192;20.900;2023-07-13T13:18:16;100001.28;;;20.37
22286;BMP180;11311;52.192;20.900;2023-07-13T13:20:46;99997.00;;;20.36
22286;BMP180;11311;52.192;20.900;2023-07-13T13:23:16;100009.34;;;20.37
22286;BMP180;11311;52.192;20.900;2023-07-13T13:25:46;100004.91;;;20.46
22286;BMP180;11311;52.192;20.900;2023-07-13T13:28:18;100007.97;;;20.39
22286;BMP180;11311;52.192;20.900;2023-07-13T13:30:50;100006.34;;;20.38
22286;BMP180;11311;52.192;20.900;2023-07-13T13:33:21;100019.03;;;20.33
22286;BMP180;11311;52.192;20.900;2023-07-13T13:35:50;100017.31;;;20.42
22286;BMP180;11311;52.192;20.900;2023-07-13T13:38:24;100028.16;;;20.32
22286;BMP180;11311;52.192;20.900;2023-07-13T13:40:53;100014.69;;;20.37
22286;BMP180;11311;52.192;20.900;2023-07-13T13:43:24;100020.34;;;20.17
22286;BMP180;11311;52.192;20.900;2023-07-13T13:45:56;100022.66;;;19.81
22286;BMP180;11311;52.192;20.900;2023-07-13T13:48:29;100018.41;;;19.98
22286;BMP180;11311;52.192;20.900;2023-07-13T13:51:00;100028.88;;;20.19
22286;BMP180;11311;52.192;20.900;2023-07-13T13:53:31;100033.41;;;19.99
22286;BMP180;11311;52.192;20.900;2023-07-13T13:56:00;100034.03;;;19.68
22286;BMP180;11311;52.192;20.900;2023-07-13T13:58:30;100040.00;;;19.88
22286;BMP180;11311;52.192;20.900;2023-07-13T14:00:59;100039.09;;;20.17
22286;BMP180;11311;52.192;20.900;2023-07-13T14:03:28;100038.47;;;20.43
22286;BMP180;11311;52.192;20.900;2023-07-13T14:05:57;100036.56;;;20.44
22286;BMP180;11311;52.192;20.900;2023-07-13T14:08:26;100034.78;;;20.39
22286;BMP180;11311;52.192;20.900;2023-07-13T14:10:56;100036.84;;;20.24
22286;BMP180;11311;52.192;20.900;2023-07-13T14:13:31;100036.19;;;20.50
22286;BMP180;11311;52.192;20.900;2023-07-13T14:16:02;100033.81;;;20.67
22286;BMP180;11311;52.192;20.900;2023-07-13T14:18:31;100028.63;;;20.90